sensor_id;sensor_type;location;lat;lon;timestamp;P1;durP1;ratioP1;P2;durP2;ratioP2
46266;SDS011;31998;48.798;15.066;2023-05-13T00:01:52;10.03;;;9.03;;
46266;SDS011;31998;48.798;15.066;2023-05-13T00:04:17;9.97;;;8.87;;
46266;SDS011;31998;48.798;15.066;2023-05-13T00:06:43;12.30;;;11.10;;
46266;SDS011;31998;48.798;15.066;2023-05-13T00:09:08;10.27;;;9.47;;
46266;SDS011;31998;48.798;15.066;2023-05-13T00:11:33;12.17;;;11.07;;
46266;SDS011;31998;48.798;15.066;2023-05-13T00:13:59;12.30;;;11.07;;
46266;SDS011;31998;48.798;15.066;2023-05-13T00:16:24;13.03;;;11.73;;
46266;SDS011;31998;48.798;15.066;2023-05-13T00:18:51;14.47;;;13.00;;
46266;SDS011;31998;48.798;15.066;2023-05-13T00:21:16;18.87;;;13.53;;
46266;SDS011;31998;48.798;15.066;2023-05-13T00:23:42;14.40;;;12.67;;
46266;SDS011;31998;48.798;15.066;2023-05-13T00:26:07;13.40;;;12.07;;
46266;SDS011;31998;48.798;15.066;2023-05-13T00:28:33;14.93;;;13.33;;
46266;SDS011;31998;48.798;15.066;2023-05-13T00:30:58;14.43;;;13.03;;
46266;SDS011;31998;48.798;15.066;2023-05-13T00:33:23;14.37;;;13.03;;
46266;SDS011;31998;48.798;15.066;2023-05-13T00:35:48;17.93;;;14.23;;
46266;SDS011;31998;48.798;15.066;2023-05-13T00:38:13;13.50;;;12.20;;
46266;SDS011;31998;48.798;15.066;2023-05-13T00:40:39;14.50;;;13.10;;
46266;SDS011;31998;48.798;15.066;2023-05-13T00:43:05;14.73;;;13.20;;
46266;SDS011;31998;48.798;15.066;2023-05-13T00:45:31;12.80;;;11.50;;
46266;SDS011;31998;48.798;15.066;2023-05-13T00:47:57;12.67;;;11.57;;
46266;SDS011;31998;48.798;15.066;2023-05-13T00:50:22;11.17;;;10.17;;
46266;SDS011;31998;48.798;15.066;2023-05-13T00:52:48;10.47;;;9.57;;
46266;SDS011;31998;48.798;15.066;2023-05-13T00:55:13;12.57;;;10.70;;
46266;SDS011;31998;48.798;15.066;2023-05-13T00:57:39;10.80;;;9.90;;
46266;SDS011;31998;48.798;15.066;2023-05-13T01:00:04;12.20;;;11.00;;
46266;SDS011;31998;48.798;15.066;2023-05-13T01:10:01;10.60;;;9.60;;
46266;SDS011;31998;48.798;15.066;2023-05-13T01:12:40;15.77;;;11.30;;
46266;SDS011;31998;48.798;15.066;2023-05-13T01:15:08;10.70;;;9.60;;
46266;SDS011;31998;48.798;15.066;2023-05-13T01:17:46;14.53;;;9.93;;
46266;SDS011;31998;48.798;15.066;2023-05-13T01:20:12;10.57;;;9.30;;
46266;SDS011;31998;48.798;15.066;2023-05-13T01:22:37;10.63;;;9.60;;
46266;SDS011;31998;48.798;15.066;2023-05-13T01:25:02;11.30;;;9.50;;
46266;SDS011;31998;48.798;15.066;2023-05-13T01:27:28;10.03;;;9.00;;
46266;SDS011;31998;48.798;15.066;2023-05-13T01:29:53;17.23;;;8.97;;
46266;SDS011;31998;48.798;15.066;2023-05-13T01:32:19;9.40;;;8.60;;
46266;SDS011;31998;48.798;15.066;2023-05-13T01:34:45;9.30;;;8.50;;
46266;SDS011;31998;48.798;15.066;2023-05-13T01:37:11;9.30;;;8.40;;
46266;SDS011;31998;48.798;15.066;2023-05-13T01:39:36;8.63;;;7.90;;
46266;SDS011;31998;48.798;15.066;2023-05-13T01:42:02;8.57;;;7.40;;
46266;SDS011;31998;48.798;15.066;2023-05-13T01:44:27;8.70;;;8.00;;
46266;SDS011;31998;48.798;15.066;2023-05-13T01:46:52;9.20;;;8.40;;
46266;SDS011;31998;48.798;15.066;2023-05-13T01:49:18;6.73;;;6.33;;
46266;SDS011;31998;48.798;15.066;2023-05-13T01:51:43;8.30;;;7.40;;
46266;SDS011;31998;48.798;15.066;2023-05-13T01:54:08;8.53;;;7.30;;
46266;SDS011;31998;48.798;15.066;2023-05-13T01:56:34;7.93;;;7.30;;
46266;SDS011;31998;48.798;15.066;2023-05-13T01:58:59;7.17;;;6.67;;
46266;SDS011;31998;48.798;15.066;2023-05-13T02:01:25;7.27;;;6.77;;
46266;SDS011;31998;48.798;15.066;2023-05-13T02:03:50;7.60;;;7.00;;
46266;SDS011;31998;48.798;15.066;2023-05-13T02:06:15;6.73;;;6.23;;
46266;SDS011;31998;48.798;15.066;2023-05-13T02:08:40;6.30;;;6.00;;
46266;SDS011;31998;48.798;15.066;2023-05-13T02:11:06;7.20;;;6.60;;
46266;SDS011;31998;48.798;15.066;2023-05-13T02:13:31;5.77;;;5.37;;
46266;SDS011;31998;48.798;15.066;2023-05-13T02:15:56;6.40;;;5.90;;
46266;SDS011;31998;48.798;15.066;2023-05-13T02:18:22;7.43;;;6.83;;
46266;SDS011;31998;48.798;15.066;2023-05-13T02:20:47;5.47;;;5.20;;
46266;SDS011;31998;48.798;15.066;2023-05-13T02:23:12;6.50;;;6.10;;
46266;SDS011;31998;48.798;15.066;2023-05-13T02:25:39;5.57;;;5.27;;
46266;SDS011;31998;48.798;15.066;2023-05-13T02:28:05;5.77;;;5.50;;
46266;SDS011;31998;48.798;15.066;2023-05-13T02:30:30;5.83;;;5.53;;
46266;SDS011;31998;48.798;15.066;2023-05-13T02:32:55;5.80;;;5.40;;
46266;SDS011;31998;48.798;15.066;2023-05-13T02:35:21;6.07;;;5.63;;
46266;SDS011;31998;48.798;15.066;2023-05-13T02:37:46;5.50;;;5.30;;
46266;SDS011;31998;48.798;15.066;2023-05-13T02:40:12;5.83;;;5.33;;
46266;SDS011;31998;48.798;15.066;2023-05-13T02:42:37;6.43;;;5.90;;
46266;SDS011;31998;48.798;15.066;2023-05-13T02:45:03;6.63;;;6.23;;
46266;SDS011;31998;48.798;15.066;2023-05-13T02:47:28;6.73;;;6.10;;
46266;SDS011;31998;48.798;15.066;2023-05-13T02:49:54;7.67;;;7.07;;
46266;SDS011;31998;48.798;15.066;2023-05-13T02:52:19;7.60;;;6.03;;
46266;SDS011;31998;48.798;15.066;2023-05-13T02:54:45;6.73;;;6.23;;
46266;SDS011;31998;48.798;15.066;2023-05-13T02:57:10;6.30;;;5.90;;
46266;SDS011;31998;48.798;15.066;2023-05-13T02:59:35;6.53;;;6.20;;
46266;SDS011;31998;48.798;15.066;2023-05-13T03:02:00;7.97;;;5.00;;
46266;SDS011;31998;48.798;15.066;2023-05-13T03:04:26;7.30;;;5.80;;
46266;SDS011;31998;48.798;15.066;2023-05-13T03:06:51;6.83;;;6.27;;
46266;SDS011;31998;48.798;15.066;2023-05-13T03:09:17;6.47;;;6.07;;
46266;SDS011;31998;48.798;15.066;2023-05-13T03:11:42;7.47;;;6.93;;
46266;SDS011;31998;48.798;15.066;2023-05-13T03:14:07;6.77;;;6.23;;
46266;SDS011;31998;48.798;15.066;2023-05-13T03:16:32;7.87;;;7.27;;
46266;SDS011;31998;48.798;15.066;2023-05-13T03:18:57;6.13;;;5.60;;
46266;SDS011;31998;48.798;15.066;2023-05-13T03:21:23;7.03;;;6.53;;
46266;SDS011;31998;48.798;15.066;2023-05-13T03:23:48;7.23;;;6.63;;
46266;SDS011;31998;48.798;15.066;2023-05-13T03:26:13;7.23;;;6.80;;
46266;SDS011;31998;48.798;15.066;2023-05-13T03:28:38;7.07;;;6.57;;
46266;SDS011;31998;48.798;15.066;2023-05-13T03:31:04;8.40;;;7.60;;
46266;SDS011;31998;48.798;15.066;2023-05-13T03:33:29;9.53;;;8.60;;
46266;SDS011;31998;48.798;15.066;2023-05-13T03:35:54;11.33;;;10.17;;
46266;SDS011;31998;48.798;15.066;2023-05-13T03:38:20;10.30;;;9.30;;
46266;SDS011;31998;48.798;15.066;2023-05-13T03:40:45;12.13;;;9.00;;
46266;SDS011;31998;48.798;15.066;2023-05-13T03:43:11;12.17;;;10.63;;
46266;SDS011;31998;48.798;15.066;2023-05-13T03:45:36;12.17;;;10.07;;
46266;SDS011;31998;48.798;15.066;2023-05-13T03:48:01;11.53;;;10.53;;
46266;SDS011;31998;48.798;15.066;2023-05-13T03:50:26;11.30;;;10.30;;
46266;SDS011;31998;48.798;15.066;2023-05-13T03:52:52;11.60;;;9.80;;
46266;SDS011;31998;48.798;15.066;2023-05-13T03:55:17;11.67;;;10.47;;
46266;SDS011;31998;48.798;15.066;2023-05-13T03:57:47;13.63;;;11.80;;
46266;SDS011;31998;48.798;15.066;2023-05-13T04:00:13;14.03;;;12.53;;
46266;SDS011;31998;48.798;15.066;2023-05-13T04:02:38;13.23;;;11.80;;
46266;SDS011;31998;48.798;15.066;2023-05-13T04:05:03;13.07;;;11.33;;
46266;SDS011;31998;48.798;15.066;2023-05-13T04:07:30;13.10;;;11.80;;
46266;SDS011;31998;48.798;15.066;2023-05-13T04:09:55;15.30;;;11.60;;
46266;SDS011;31998;48.798;15.066;2023-05-13T04:12:20;15.90;;;12.57;;
46266;SDS011;31998;48.798;15.066;2023-05-13T04:14:45;16.63;;;12.67;;
46266;SDS011;31998;48.798;15.066;2023-05-13T04:17:10;13.23;;;11.27;;
46266;SDS011;31998;48.798;15.066;2023-05-13T04:19:36;13.87;;;11.90;;
46266;SDS011;31998;48.798;15.066;2023-05-13T04:22:01;14.17;;;11.87;;
46266;SDS011;31998;48.798;15.066;2023-05-13T04:24:26;15.70;;;13.30;;
46266;SDS011;31998;48.798;15.066;2023-05-13T04:26:51;19.27;;;12.87;;
46266;SDS011;31998;48.798;15.066;2023-05-13T04:29:17;19.10;;;12.07;;
46266;SDS011;31998;48.798;15.066;2023-05-13T04:31:43;16.90;;;11.30;;
46266;SDS011;31998;48.798;15.066;2023-05-13T04:34:08;14.13;;;12.10;;
46266;SDS011;31998;48.798;15.066;2023-05-13T04:36:33;22.77;;;12.00;;
46266;SDS011;31998;48.798;15.066;2023-05-13T04:38:58;18.80;;;13.27;;
46266;SDS011;31998;48.798;15.066;2023-05-13T04:41:24;16.13;;;12.27;;
46266;SDS011;31998;48.798;15.066;2023-05-13T04:43:49;16.97;;;13.83;;
46266;SDS011;31998;48.798;15.066;2023-05-13T04:46:14;17.87;;;13.90;;
46266;SDS011;31998;48.798;15.066;2023-05-13T04:48:39;19.10;;;14.00;;
46266;SDS011;31998;48.798;15.066;2023-05-13T04:51:05;19.50;;;14.90;;
46266;SDS011;31998;48.798;15.066;2023-05-13T04:53:30;20.13;;;14.50;;
46266;SDS011;31998;48.798;15.066;2023-05-13T04:55:55;20.93;;;17.00;;
46266;SDS011;31998;48.798;15.066;2023-05-13T04:58:24;20.93;;;14.90;;
46266;SDS011;31998;48.798;15.066;2023-05-13T05:00:50;20.60;;;15.13;;
46266;SDS011;31998;48.798;15.066;2023-05-13T05:03:15;24.80;;;17.90;;
46266;SDS011;31998;48.798;15.066;2023-05-13T05:05:40;23.60;;;16.60;;
46266;SDS011;31998;48.798;15.066;2023-05-13T05:08:05;23.80;;;17.37;;
46266;SDS011;31998;48.798;15.066;2023-05-13T05:10:31;20.80;;;16.27;;
46266;SDS011;31998;48.798;15.066;2023-05-13T05:12:56;23.57;;;17.70;;
46266;SDS011;31998;48.798;15.066;2023-05-13T05:15:21;25.73;;;17.77;;
46266;SDS011;31998;48.798;15.066;2023-05-13T05:17:46;25.70;;;19.60;;
46266;SDS011;31998;48.798;15.066;2023-05-13T05:20:12;22.37;;;17.07;;
46266;SDS011;31998;48.798;15.066;2023-05-13T05:22:37;25.40;;;19.60;;
46266;SDS011;31998;48.798;15.066;2023-05-13T05:25:03;24.40;;;18.97;;
46266;SDS011;31998;48.798;15.066;2023-05-13T05:27:28;20.90;;;16.33;;
46266;SDS011;31998;48.798;15.066;2023-05-13T05:29:53;27.20;;;18.60;;
46266;SDS011;31998;48.798;15.066;2023-05-13T05:32:19;25.97;;;17.70;;
46266;SDS011;31998;48.798;15.066;2023-05-13T05:34:44;25.50;;;16.73;;
46266;SDS011;31998;48.798;15.066;2023-05-13T05:37:09;22.43;;;16.97;;
46266;SDS011;31998;48.798;15.066;2023-05-13T05:39:34;17.90;;;15.07;;
46266;SDS011;31998;48.798;15.066;2023-05-13T05:42:00;21.03;;;15.43;;
46266;SDS011;31998;48.798;15.066;2023-05-13T05:44:25;22.20;;;16.90;;
46266;SDS011;31998;48.798;15.066;2023-05-13T05:46:50;28.40;;;17.67;;
46266;SDS011;31998;48.798;15.066;2023-05-13T05:49:16;30.10;;;19.10;;
46266;SDS011;31998;48.798;15.066;2023-05-13T05:51:41;31.27;;;19.97;;
46266;SDS011;31998;48.798;15.066;2023-05-13T05:54:07;23.87;;;19.73;;
46266;SDS011;31998;48.798;15.066;2023-05-13T05:56:32;33.10;;;19.30;;
46266;SDS011;31998;48.798;15.066;2023-05-13T05:58:57;35.50;;;21.97;;
46266;SDS011;31998;48.798;15.066;2023-05-13T06:01:22;29.23;;;19.67;;
46266;SDS011;31998;48.798;15.066;2023-05-13T06:03:48;28.63;;;18.73;;
46266;SDS011;31998;48.798;15.066;2023-05-13T06:06:13;30.10;;;19.93;;
46266;SDS011;31998;48.798;15.066;2023-05-13T06:08:38;30.93;;;20.57;;
46266;SDS011;31998;48.798;15.066;2023-05-13T06:11:03;33.37;;;23.20;;
46266;SDS011;31998;48.798;15.066;2023-05-13T06:13:29;36.53;;;23.70;;
46266;SDS011;31998;48.798;15.066;2023-05-13T06:15:54;37.83;;;24.23;;
46266;SDS011;31998;48.798;15.066;2023-05-13T06:18:19;36.27;;;23.07;;
46266;SDS011;31998;48.798;15.066;2023-05-13T06:20:45;34.70;;;23.17;;
46266;SDS011;31998;48.798;15.066;2023-05-13T06:23:10;30.60;;;21.90;;
46266;SDS011;31998;48.798;15.066;2023-05-13T06:25:35;29.80;;;20.07;;
46266;SDS011;31998;48.798;15.066;2023-05-13T06:28:00;26.77;;;19.47;;
46266;SDS011;31998;48.798;15.066;2023-05-13T06:30:27;28.70;;;21.17;;
46266;SDS011;31998;48.798;15.066;2023-05-13T06:32:52;23.60;;;18.57;;
46266;SDS011;31998;48.798;15.066;2023-05-13T06:35:19;24.33;;;18.00;;
46266;SDS011;31998;48.798;15.066;2023-05-13T06:37:44;17.57;;;15.80;;
46266;SDS011;31998;48.798;15.066;2023-05-13T06:40:09;22.80;;;17.30;;
46266;SDS011;31998;48.798;15.066;2023-05-13T06:42:35;16.97;;;15.20;;
46266;SDS011;31998;48.798;15.066;2023-05-13T06:45:06;13.77;;;12.40;;
46266;SDS011;31998;48.798;15.066;2023-05-13T06:47:31;12.90;;;11.57;;
46266;SDS011;31998;48.798;15.066;2023-05-13T06:49:56;12.40;;;11.30;;
46266;SDS011;31998;48.798;15.066;2023-05-13T06:52:22;13.10;;;11.80;;
46266;SDS011;31998;48.798;15.066;2023-05-13T06:54:47;11.77;;;10.77;;
46266;SDS011;31998;48.798;15.066;2023-05-13T06:57:12;11.40;;;10.50;;
46266;SDS011;31998;48.798;15.066;2023-05-13T06:59:37;10.20;;;9.40;;
46266;SDS011;31998;48.798;15.066;2023-05-13T07:02:03;10.00;;;9.10;;
46266;SDS011;31998;48.798;15.066;2023-05-13T07:04:28;9.87;;;9.07;;
46266;SDS011;31998;48.798;15.066;2023-05-13T07:06:54;8.27;;;7.60;;
46266;SDS011;31998;48.798;15.066;2023-05-13T07:09:19;9.53;;;8.67;;
46266;SDS011;31998;48.798;15.066;2023-05-13T07:11:45;8.90;;;8.20;;
46266;SDS011;31998;48.798;15.066;2023-05-13T07:14:10;8.67;;;8.07;;
46266;SDS011;31998;48.798;15.066;2023-05-13T07:16:35;8.00;;;7.40;;
46266;SDS011;31998;48.798;15.066;2023-05-13T07:19:00;9.37;;;8.47;;
46266;SDS011;31998;48.798;15.066;2023-05-13T07:21:26;9.53;;;8.60;;
46266;SDS011;31998;48.798;15.066;2023-05-13T07:23:51;8.57;;;7.87;;
46266;SDS011;31998;48.798;15.066;2023-05-13T07:26:16;8.17;;;7.67;;
46266;SDS011;31998;48.798;15.066;2023-05-13T07:28:41;7.70;;;6.90;;
46266;SDS011;31998;48.798;15.066;2023-05-13T07:31:07;8.70;;;7.90;;
46266;SDS011;31998;48.798;15.066;2023-05-13T07:33:32;27.70;;;7.70;;
46266;SDS011;31998;48.798;15.066;2023-05-13T07:35:58;8.47;;;7.83;;
46266;SDS011;31998;48.798;15.066;2023-05-13T07:38:23;9.83;;;8.80;;
46266;SDS011;31998;48.798;15.066;2023-05-13T07:40:48;9.13;;;8.53;;
46266;SDS011;31998;48.798;15.066;2023-05-13T07:43:13;13.97;;;12.23;;
46266;SDS011;31998;48.798;15.066;2023-05-13T07:45:41;15.37;;;13.83;;
46266;SDS011;31998;48.798;15.066;2023-05-13T07:48:07;20.20;;;15.57;;
46266;SDS011;31998;48.798;15.066;2023-05-13T07:50:33;20.13;;;18.03;;
46266;SDS011;31998;48.798;15.066;2023-05-13T07:52:59;19.13;;;17.20;;
46266;SDS011;31998;48.798;15.066;2023-05-13T07:55:24;23.10;;;20.20;;
46266;SDS011;31998;48.798;15.066;2023-05-13T07:57:49;35.40;;;20.83;;
46266;SDS011;31998;48.798;15.066;2023-05-13T08:00:15;29.30;;;22.50;;
46266;SDS011;31998;48.798;15.066;2023-05-13T08:02:40;22.80;;;19.40;;
46266;SDS011;31998;48.798;15.066;2023-05-13T08:05:06;24.57;;;21.87;;
46266;SDS011;31998;48.798;15.066;2023-05-13T08:07:32;30.83;;;22.57;;
46266;SDS011;31998;48.798;15.066;2023-05-13T08:09:57;27.20;;;22.13;;
46266;SDS011;31998;48.798;15.066;2023-05-13T08:12:22;30.20;;;22.40;;
46266;SDS011;31998;48.798;15.066;2023-05-13T08:14:47;26.20;;;23.40;;
46266;SDS011;31998;48.798;15.066;2023-05-13T08:17:13;32.20;;;23.80;;
46266;SDS011;31998;48.798;15.066;2023-05-13T08:19:38;24.40;;;21.83;;
46266;SDS011;31998;48.798;15.066;2023-05-13T08:22:04;25.83;;;21.23;;
46266;SDS011;31998;48.798;15.066;2023-05-13T08:24:29;30.43;;;24.03;;
46266;SDS011;31998;48.798;15.066;2023-05-13T08:26:54;28.40;;;23.90;;
46266;SDS011;31998;48.798;15.066;2023-05-13T08:29:20;28.20;;;23.30;;
46266;SDS011;31998;48.798;15.066;2023-05-13T08:31:45;26.93;;;21.70;;
46266;SDS011;31998;48.798;15.066;2023-05-13T08:34:11;26.80;;;23.40;;
46266;SDS011;31998;48.798;15.066;2023-05-13T08:36:36;26.70;;;22.70;;
46266;SDS011;31998;48.798;15.066;2023-05-13T08:39:01;27.17;;;23.60;;
46266;SDS011;31998;48.798;15.066;2023-05-13T08:41:27;28.87;;;22.83;;
46266;SDS011;31998;48.798;15.066;2023-05-13T08:43:53;27.40;;;22.30;;
46266;SDS011;31998;48.798;15.066;2023-05-13T08:46:20;26.70;;;23.80;;
46266;SDS011;31998;48.798;15.066;2023-05-13T08:48:48;29.40;;;24.73;;
46266;SDS011;31998;48.798;15.066;2023-05-13T08:51:14;35.67;;;26.73;;
46266;SDS011;31998;48.798;15.066;2023-05-13T08:53:39;29.73;;;24.23;;
46266;SDS011;31998;48.798;15.066;2023-05-13T08:56:06;29.20;;;24.37;;
46266;SDS011;31998;48.798;15.066;2023-05-13T08:58:32;33.33;;;24.57;;
46266;SDS011;31998;48.798;15.066;2023-05-13T09:00:57;29.40;;;25.43;;
46266;SDS011;31998;48.798;15.066;2023-05-13T09:03:22;30.17;;;26.77;;
46266;SDS011;31998;48.798;15.066;2023-05-13T09:05:48;33.30;;;24.70;;
46266;SDS011;31998;48.798;15.066;2023-05-13T09:08:13;29.50;;;26.00;;
46266;SDS011;31998;48.798;15.066;2023-05-13T09:10:39;32.93;;;26.33;;
46266;SDS011;31998;48.798;15.066;2023-05-13T09:13:04;32.33;;;27.30;;
46266;SDS011;31998;48.798;15.066;2023-05-13T09:15:30;30.27;;;26.90;;
46266;SDS011;31998;48.798;15.066;2023-05-13T09:18:00;30.40;;;26.10;;
46266;SDS011;31998;48.798;15.066;2023-05-13T09:20:26;34.07;;;26.67;;
46266;SDS011;31998;48.798;15.066;2023-05-13T09:22:52;30.10;;;26.80;;
46266;SDS011;31998;48.798;15.066;2023-05-13T09:25:18;33.20;;;29.30;;
46266;SDS011;31998;48.798;15.066;2023-05-13T09:27:47;32.23;;;28.73;;
46266;SDS011;31998;48.798;15.066;2023-05-13T09:30:13;33.40;;;28.00;;
46266;SDS011;31998;48.798;15.066;2023-05-13T09:32:39;30.00;;;26.80;;
46266;SDS011;31998;48.798;15.066;2023-05-13T09:35:11;33.90;;;28.27;;
46266;SDS011;31998;48.798;15.066;2023-05-13T09:37:40;37.77;;;30.17;;
46266;SDS011;31998;48.798;15.066;2023-05-13T09:40:06;30.17;;;26.50;;
46266;SDS011;31998;48.798;15.066;2023-05-13T09:42:34;32.40;;;26.60;;
46266;SDS011;31998;48.798;15.066;2023-05-13T09:45:04;31.93;;;26.60;;
46266;SDS011;31998;48.798;15.066;2023-05-13T09:47:30;30.43;;;25.80;;
46266;SDS011;31998;48.798;15.066;2023-05-13T09:49:55;33.37;;;28.07;;
46266;SDS011;31998;48.798;15.066;2023-05-13T09:52:21;34.30;;;27.90;;
46266;SDS011;31998;48.798;15.066;2023-05-13T09:54:46;31.07;;;23.80;;
46266;SDS011;31998;48.798;15.066;2023-05-13T09:57:12;28.50;;;23.47;;
46266;SDS011;31998;48.798;15.066;2023-05-13T09:59:37;25.07;;;21.37;;
46266;SDS011;31998;48.798;15.066;2023-05-13T10:02:03;25.80;;;23.03;;
46266;SDS011;31998;48.798;15.066;2023-05-13T10:04:29;22.10;;;19.73;;
46266;SDS011;31998;48.798;15.066;2023-05-13T10:06:54;24.27;;;20.27;;
46266;SDS011;31998;48.798;15.066;2023-05-13T10:09:21;24.00;;;19.83;;
46266;SDS011;31998;48.798;15.066;2023-05-13T10:11:46;21.30;;;19.30;;
46266;SDS011;31998;48.798;15.066;2023-05-13T10:14:12;21.40;;;19.20;;
46266;SDS011;31998;48.798;15.066;2023-05-13T10:16:37;20.40;;;18.23;;
46266;SDS011;31998;48.798;15.066;2023-05-13T10:19:02;19.53;;;17.30;;
46266;SDS011;31998;48.798;15.066;2023-05-13T10:21:28;19.57;;;17.73;;
46266;SDS011;31998;48.798;15.066;2023-05-13T10:23:55;17.37;;;15.87;;
46266;SDS011;31998;48.798;15.066;2023-05-13T10:26:20;18.60;;;16.60;;
46266;SDS011;31998;48.798;15.066;2023-05-13T10:28:47;18.93;;;17.33;;
46266;SDS011;31998;48.798;15.066;2023-05-13T10:31:12;20.97;;;18.83;;
46266;SDS011;31998;48.798;15.066;2023-05-13T10:33:38;20.67;;;18.70;;
46266;SDS011;31998;48.798;15.066;2023-05-13T10:41:55;19.23;;;17.53;;
46266;SDS011;31998;48.798;15.066;2023-05-13T10:44:24;20.80;;;18.60;;
46266;SDS011;31998;48.798;15.066;2023-05-13T10:46:49;20.40;;;18.60;;
46266;SDS011;31998;48.798;15.066;2023-05-13T10:49:14;22.37;;;19.87;;
46266;SDS011;31998;48.798;15.066;2023-05-13T10:51:43;19.40;;;17.70;;
46266;SDS011;31998;48.798;15.066;2023-05-13T10:54:16;22.83;;;18.60;;
46266;SDS011;31998;48.798;15.066;2023-05-13T10:56:41;20.47;;;18.73;;
46266;SDS011;31998;48.798;15.066;2023-05-13T10:59:07;20.47;;;18.67;;
46266;SDS011;31998;48.798;15.066;2023-05-13T11:03:59;23.87;;;21.20;;
46266;SDS011;31998;48.798;15.066;2023-05-13T11:06:40;24.33;;;21.77;;
46266;SDS011;31998;48.798;15.066;2023-05-13T11:09:06;23.40;;;20.90;;
46266;SDS011;31998;48.798;15.066;2023-05-13T11:11:33;22.10;;;20.10;;
46266;SDS011;31998;48.798;15.066;2023-05-13T11:16:24;23.10;;;19.60;;
46266;SDS011;31998;48.798;15.066;2023-05-13T11:18:50;22.50;;;19.00;;
46266;SDS011;31998;48.798;15.066;2023-05-13T11:21:15;17.60;;;16.00;;
46266;SDS011;31998;48.798;15.066;2023-05-13T11:23:50;15.03;;;13.73;;
46266;SDS011;31998;48.798;15.066;2023-05-13T11:26:16;16.40;;;14.90;;
46266;SDS011;31998;48.798;15.066;2023-05-13T11:28:54;16.30;;;14.47;;
46266;SDS011;31998;48.798;15.066;2023-05-13T11:31:19;17.23;;;15.67;;
46266;SDS011;31998;48.798;15.066;2023-05-13T11:34:04;16.80;;;15.00;;
46266;SDS011;31998;48.798;15.066;2023-05-13T11:36:30;18.80;;;17.03;;
46266;SDS011;31998;48.798;15.066;2023-05-13T11:39:06;23.13;;;19.00;;
46266;SDS011;31998;48.798;15.066;2023-05-13T11:41:32;21.20;;;19.00;;
46266;SDS011;31998;48.798;15.066;2023-05-13T11:43:58;24.10;;;20.43;;
46266;SDS011;31998;48.798;15.066;2023-05-13T11:46:23;22.33;;;20.00;;
46266;SDS011;31998;48.798;15.066;2023-05-13T11:48:49;24.60;;;20.83;;
46266;SDS011;31998;48.798;15.066;2023-05-13T11:51:16;24.07;;;21.57;;
46266;SDS011;31998;48.798;15.066;2023-05-13T11:53:42;27.00;;;23.30;;
46266;SDS011;31998;48.798;15.066;2023-05-13T11:56:08;25.77;;;21.63;;
46266;SDS011;31998;48.798;15.066;2023-05-13T11:58:34;23.93;;;21.33;;
46266;SDS011;31998;48.798;15.066;2023-05-13T12:00:59;26.10;;;20.20;;
46266;SDS011;31998;48.798;15.066;2023-05-13T12:03:26;23.77;;;19.77;;
46266;SDS011;31998;48.798;15.066;2023-05-13T12:05:59;23.63;;;18.40;;
46266;SDS011;31998;48.798;15.066;2023-05-13T12:08:24;29.77;;;19.57;;
46266;SDS011;31998;48.798;15.066;2023-05-13T12:10:50;20.83;;;17.30;;
46266;SDS011;31998;48.798;15.066;2023-05-13T12:13:15;23.73;;;16.67;;
46266;SDS011;31998;48.798;15.066;2023-05-13T12:15:40;26.77;;;17.57;;
46266;SDS011;31998;48.798;15.066;2023-05-13T12:18:05;22.90;;;15.70;;
46266;SDS011;31998;48.798;15.066;2023-05-13T12:20:31;18.70;;;16.60;;
46266;SDS011;31998;48.798;15.066;2023-05-13T12:22:58;22.80;;;15.30;;
46266;SDS011;31998;48.798;15.066;2023-05-13T12:30:48;18.23;;;16.07;;
46266;SDS011;31998;48.798;15.066;2023-05-13T12:33:18;14.00;;;12.60;;
46266;SDS011;31998;48.798;15.066;2023-05-13T12:35:45;14.30;;;13.03;;
46266;SDS011;31998;48.798;15.066;2023-05-13T12:38:16;15.10;;;12.93;;
46266;SDS011;31998;48.798;15.066;2023-05-13T12:40:42;14.73;;;11.90;;
46266;SDS011;31998;48.798;15.066;2023-05-13T12:43:07;11.33;;;10.27;;
46266;SDS011;31998;48.798;15.066;2023-05-13T12:45:32;11.13;;;10.07;;
46266;SDS011;31998;48.798;15.066;2023-05-13T12:47:58;10.87;;;9.97;;
46266;SDS011;31998;48.798;15.066;2023-05-13T12:50:24;11.70;;;10.70;;
46266;SDS011;31998;48.798;15.066;2023-05-13T12:52:49;10.93;;;10.00;;
46266;SDS011;31998;48.798;15.066;2023-05-13T12:55:15;11.50;;;10.40;;
46266;SDS011;31998;48.798;15.066;2023-05-13T12:57:41;17.20;;;11.07;;
46266;SDS011;31998;48.798;15.066;2023-05-13T13:00:06;11.07;;;9.87;;
46266;SDS011;31998;48.798;15.066;2023-05-13T13:02:33;12.63;;;11.30;;
46266;SDS011;31998;48.798;15.066;2023-05-13T13:04:59;12.47;;;11.43;;
46266;SDS011;31998;48.798;15.066;2023-05-13T13:07:24;12.87;;;11.37;;
46266;SDS011;31998;48.798;15.066;2023-05-13T13:09:49;13.97;;;12.60;;
46266;SDS011;31998;48.798;15.066;2023-05-13T13:12:14;13.20;;;11.10;;
46266;SDS011;31998;48.798;15.066;2023-05-13T13:14:39;12.17;;;10.97;;
46266;SDS011;31998;48.798;15.066;2023-05-13T13:17:05;10.30;;;9.50;;
46266;SDS011;31998;48.798;15.066;2023-05-13T13:19:31;12.90;;;11.70;;
46266;SDS011;31998;48.798;15.066;2023-05-13T13:21:56;10.83;;;9.90;;
46266;SDS011;31998;48.798;15.066;2023-05-13T13:24:21;10.23;;;9.43;;
46266;SDS011;31998;48.798;15.066;2023-05-13T13:26:46;10.03;;;9.13;;
46266;SDS011;31998;48.798;15.066;2023-05-13T13:29:13;10.00;;;9.30;;
46266;SDS011;31998;48.798;15.066;2023-05-13T13:31:39;8.80;;;8.30;;
46266;SDS011;31998;48.798;15.066;2023-05-13T13:34:04;8.70;;;8.10;;
46266;SDS011;31998;48.798;15.066;2023-05-13T13:36:30;7.40;;;7.00;;
46266;SDS011;31998;48.798;15.066;2023-05-13T13:38:56;8.37;;;7.57;;
46266;SDS011;31998;48.798;15.066;2023-05-13T13:41:22;8.73;;;8.13;;
46266;SDS011;31998;48.798;15.066;2023-05-13T13:43:49;8.30;;;7.80;;
46266;SDS011;31998;48.798;15.066;2023-05-13T13:46:14;9.47;;;8.77;;
46266;SDS011;31998;48.798;15.066;2023-05-13T13:48:40;8.60;;;7.93;;
46266;SDS011;31998;48.798;15.066;2023-05-13T13:51:05;10.47;;;9.50;;
46266;SDS011;31998;48.798;15.066;2023-05-13T13:53:30;9.80;;;8.73;;
46266;SDS011;31998;48.798;15.066;2023-05-13T13:55:55;11.00;;;10.10;;
46266;SDS011;31998;48.798;15.066;2023-05-13T13:58:21;11.70;;;10.70;;
46266;SDS011;31998;48.798;15.066;2023-05-13T14:00:46;11.87;;;10.93;;
46266;SDS011;31998;48.798;15.066;2023-05-13T14:03:11;11.50;;;10.60;;
46266;SDS011;31998;48.798;15.066;2023-05-13T14:05:37;13.47;;;11.73;;
46266;SDS011;31998;48.798;15.066;2023-05-13T14:08:02;14.50;;;13.00;;
46266;SDS011;31998;48.798;15.066;2023-05-13T14:10:27;14.53;;;13.23;;
46266;SDS011;31998;48.798;15.066;2023-05-13T14:12:52;14.13;;;12.20;;
46266;SDS011;31998;48.798;15.066;2023-05-13T14:15:18;17.17;;;14.33;;
46266;SDS011;31998;48.798;15.066;2023-05-13T14:17:43;15.30;;;13.30;;
46266;SDS011;31998;48.798;15.066;2023-05-13T14:20:08;14.40;;;12.73;;
46266;SDS011;31998;48.798;15.066;2023-05-13T14:22:35;16.33;;;14.70;;
46266;SDS011;31998;48.798;15.066;2023-05-13T14:25:01;16.30;;;14.80;;
46266;SDS011;31998;48.798;15.066;2023-05-13T14:27:26;17.50;;;16.00;;
46266;SDS011;31998;48.798;15.066;2023-05-13T14:29:51;14.93;;;13.53;;
46266;SDS011;31998;48.798;15.066;2023-05-13T14:32:16;21.23;;;15.73;;